Aviator — V7NU9 — position and weather

sailwx.info

Track history (hours):
 
Tides and Currents Weather Stations Pressure Air Temp Water Temp Dewpoint Dewpoint Depression Visibility Wind Speed Wind Dir Waves Ship Positions

Aviator

Last reported at 2015-Jul-20 03:23 UTC. Time now 2015-Jul-28 19:43 UTC.
Position S 24°36' W 043°19'.
Warning: this ship's position is 8 days out of date.

Length 140 m; draft 6.4 m.

Type: Ship. MMSI: 538003023.

Date/timePositionNaut miles runAvg speedWind from/ knotsBaromVisibWave heightAir tempDewpointWater temp
2015-Jul-20 03:23S 24°36' W 043°19'3311.0
2015-Jul-20 00:24S 25°01' W 043°44'2511.6
2015-Jul-19 22:17S 25°19' W 044°02'911.3
2015-Jul-19 21:30S 25°25' W 044°09'  
2015-Jul-16 17:32S 34°51' W 057°21'1312.8
2015-Jul-16 16:33S 34°46' W 057°35'1211.8
2015-Jul-16 15:33S 34°44' W 057°49'0 0.2
2015-Jul-16 14:33S 34°44' W 057°49'0 0.0
2015-Jul-16 13:33S 34°44' W 057°49'0 0.0
2015-Jul-16 12:33S 34°44' W 057°49'0 0.0
2015-Jul-16 11:33S 34°44' W 057°49'0 0.0
2015-Jul-16 10:33S 34°44' W 057°49'0 0.0
2015-Jul-16 09:33S 34°44' W 057°49'0 0.0
2015-Jul-16 08:33S 34°44' W 057°49'0 0.2
2015-Jul-16 07:30S 34°44' W 057°49'6 6.4
2015-Jul-16 06:33S 34°42' W 057°56'1211.8
2015-Jul-16 05:33S 34°30' W 057°57'1212.1
2015-Jul-16 04:33S 34°18' W 058°02'1412.9
2015-Jul-16 03:29S 34°10' W 058°15'  
2015-Jul-13 14:29S 34°12' W 058°09'1011.2
2015-Jul-13 13:33S 34°20' W 058°01'1211.7
2015-Jul-13 12:33S 34°31' W 057°56'1110.8
2015-Jul-13 11:33S 34°42' W 057°55'1010.1
2015-Jul-13 10:34S 34°44' W 057°43'  
Track history (hours):
 
Tides and Currents Weather Stations Pressure Air Temp Water Temp Dewpoint Dewpoint Depression Visibility Wind Speed Wind Dir Waves Ship Positions

Aviator

Last reported at 2015-Jul-20 03:23 UTC. Time now 2015-Jul-28 19:43 UTC.
Position S 24°36' W 043°19'.
Warning: this ship's position is 8 days out of date.

Length 140 m; draft 6.4 m.

Type: Ship. MMSI: 538003023.

Date/timePositionNaut miles runAvg speedWind from/ knotsBaromVisibWave heightAir tempDewpointWater temp
2015-Jul-20 03:23S 24°36' W 043°19'3311.0
2015-Jul-20 00:24S 25°01' W 043°44'2511.6
2015-Jul-19 22:17S 25°19' W 044°02'911.3
2015-Jul-19 21:30S 25°25' W 044°09'  
2015-Jul-16 17:32S 34°51' W 057°21'1312.8
2015-Jul-16 16:33S 34°46' W 057°35'1211.8
2015-Jul-16 15:33S 34°44' W 057°49'0 0.2
2015-Jul-16 14:33S 34°44' W 057°49'0 0.0
2015-Jul-16 13:33S 34°44' W 057°49'0 0.0
2015-Jul-16 12:33S 34°44' W 057°49'0 0.0
2015-Jul-16 11:33S 34°44' W 057°49'0 0.0
2015-Jul-16 10:33S 34°44' W 057°49'0 0.0
2015-Jul-16 09:33S 34°44' W 057°49'0 0.0
2015-Jul-16 08:33S 34°44' W 057°49'0 0.2
2015-Jul-16 07:30S 34°44' W 057°49'6 6.4
2015-Jul-16 06:33S 34°42' W 057°56'1211.8
2015-Jul-16 05:33S 34°30' W 057°57'1212.1
2015-Jul-16 04:33S 34°18' W 058°02'1412.9
2015-Jul-16 03:29S 34°10' W 058°15'  
2015-Jul-13 14:29S 34°12' W 058°09'1011.2
2015-Jul-13 13:33S 34°20' W 058°01'1211.7
2015-Jul-13 12:33S 34°31' W 057°56'1110.8
2015-Jul-13 11:33S 34°42' W 057°55'1010.1
2015-Jul-13 10:34S 34°44' W 057°43'  

Dump ship's entire track history